createdAt,value
2018-09-29T00:01:20.428Z,1.80
2018-09-29T00:03:48.938Z,1.47
2018-09-29T00:06:17.446Z,1.47
2018-09-29T00:08:45.956Z,1.70
2018-09-29T00:11:14.477Z,1.30
2018-09-29T00:13:42.997Z,1.67
2018-09-29T00:16:11.538Z,1.30
2018-09-29T00:18:40.066Z,2.80
2018-09-29T00:21:08.633Z,1.50
2018-09-29T00:23:37.190Z,1.90
2018-09-29T00:26:05.709Z,1.53
2018-09-29T00:28:34.256Z,1.77
2018-09-29T00:31:02.815Z,1.93
2018-09-29T00:33:31.364Z,1.50
2018-09-29T00:35:59.877Z,1.67
2018-09-29T00:38:28.476Z,2.90
2018-09-29T00:40:57.561Z,1.63
2018-09-29T00:43:26.161Z,1.70
2018-09-29T00:45:54.730Z,1.63
2018-09-29T00:48:23.277Z,2.27
2018-09-29T00:50:51.899Z,1.90
2018-09-29T00:53:20.382Z,1.87
2018-09-29T00:55:48.845Z,1.20
2018-09-29T00:58:17.337Z,1.70
2018-09-29T01:00:45.840Z,3.23
2018-09-29T01:03:14.352Z,1.67
2018-09-29T01:05:42.921Z,1.97
2018-09-29T01:08:11.430Z,1.80
2018-09-29T01:10:39.934Z,1.40
2018-09-29T01:13:08.469Z,2.40
2018-09-29T01:15:36.968Z,1.55
2018-09-29T01:18:05.599Z,1.80
2018-09-29T01:20:34.056Z,1.77
2018-09-29T01:23:02.620Z,2.10
2018-09-29T01:25:31.222Z,1.37
2018-09-29T01:27:59.748Z,1.63
2018-09-29T01:30:28.932Z,1.70
2018-09-29T01:32:57.641Z,1.97
2018-09-29T01:35:26.285Z,1.60
2018-09-29T01:37:54.755Z,1.60
2018-09-29T01:40:23.334Z,1.62
2018-09-29T01:42:51.787Z,1.83
2018-09-29T01:45:20.290Z,1.70
2018-09-29T01:47:48.795Z,1.87
2018-09-29T01:50:17.286Z,2.00
2018-09-29T01:52:45.740Z,1.50
2018-09-29T01:55:14.213Z,1.40
2018-09-29T01:57:42.656Z,1.63
2018-09-29T02:00:11.540Z,1.65
2018-09-29T02:02:40.025Z,1.60
2018-09-29T02:05:08.536Z,1.50
2018-09-29T02:07:37.042Z,1.70
2018-09-29T02:10:05.589Z,1.60
2018-09-29T02:12:34.127Z,1.72
2018-09-29T02:15:02.741Z,1.45
2018-09-29T02:17:31.441Z,1.62
2018-09-29T02:19:59.995Z,1.47
2018-09-29T02:22:29.539Z,1.37
2018-09-29T02:24:58.289Z,1.93
2018-09-29T02:27:26.906Z,1.70
2018-09-29T02:29:55.502Z,1.65
2018-09-29T02:32:24.072Z,1.23
2018-09-29T02:34:52.509Z,1.73
2018-09-29T02:37:21.015Z,1.30
2018-09-29T02:39:49.530Z,1.73
2018-09-29T02:42:18.044Z,1.80
2018-09-29T02:44:46.513Z,1.50
2018-09-29T02:47:15.053Z,1.75
2018-09-29T02:49:43.658Z,1.92
2018-09-29T02:52:12.242Z,2.35
2018-09-29T02:54:40.700Z,2.00
2018-09-29T02:57:09.440Z,1.37
2018-09-29T02:59:37.981Z,1.72
2018-09-29T03:02:06.546Z,1.82
2018-09-29T03:04:35.132Z,1.82
2018-09-29T03:07:03.586Z,2.25
2018-09-29T03:09:32.191Z,1.93
2018-09-29T03:12:02.311Z,1.67
2018-09-29T03:14:31.043Z,1.62
2018-09-29T03:16:59.615Z,1.65
2018-09-29T03:19:28.637Z,1.60
2018-09-29T03:21:57.331Z,1.47
2018-09-29T03:24:26.124Z,1.77
2018-09-29T03:26:55.664Z,1.60
2018-09-29T03:29:24.421Z,2.80
2018-09-29T03:31:52.981Z,2.67
2018-09-29T03:34:21.439Z,1.50
2018-09-29T03:36:56.543Z,1.90
2018-09-29T03:39:25.110Z,1.40
2018-09-29T03:41:53.708Z,1.37
2018-09-29T03:44:22.204Z,1.50
2018-09-29T03:46:50.776Z,1.27
2018-09-29T03:49:19.239Z,1.67
2018-09-29T03:51:47.705Z,1.37
2018-09-29T03:54:16.250Z,1.37
2018-09-29T03:56:44.809Z,1.70
2018-09-29T03:59:13.320Z,1.70
2018-09-29T04:01:41.836Z,2.55
2018-09-29T04:04:10.309Z,1.42
2018-09-29T04:06:38.812Z,1.65
2018-09-29T04:09:07.777Z,2.87
2018-09-29T04:11:36.325Z,1.55
2018-09-29T04:14:04.850Z,1.50
2018-09-29T04:16:34.196Z,2.20
2018-09-29T04:19:02.750Z,1.70
2018-09-29T04:21:45.754Z,1.85
2018-09-29T04:24:14.621Z,1.75
2018-09-29T04:26:43.400Z,1.40
2018-09-29T04:29:12.697Z,1.70
2018-09-29T04:31:41.813Z,2.10
2018-09-29T04:34:10.808Z,1.80
2018-09-29T04:36:39.319Z,2.52
2018-09-29T04:39:09.864Z,1.85
2018-09-29T04:41:38.827Z,1.77
2018-09-29T04:44:07.781Z,1.60
2018-09-29T04:46:36.213Z,1.42
2018-09-29T04:49:04.801Z,1.40
2018-09-29T04:51:33.290Z,1.80
2018-09-29T04:54:01.857Z,1.57
2018-09-29T04:56:30.797Z,2.65
2018-09-29T04:58:59.380Z,1.60
2018-09-29T05:01:28.525Z,1.35
2018-09-29T05:03:57.218Z,1.70
2018-09-29T05:06:26.660Z,1.40
2018-09-29T05:08:57.002Z,1.57
2018-09-29T05:11:25.621Z,1.75
2018-09-29T05:13:54.256Z,1.60
2018-09-29T05:16:22.725Z,1.95
2018-09-29T05:18:51.185Z,1.90
2018-09-29T05:21:19.701Z,1.77
2018-09-29T05:23:48.220Z,1.98
2018-09-29T05:26:16.681Z,2.00
2018-09-29T05:28:45.309Z,3.47
2018-09-29T05:31:14.394Z,1.45
2018-09-29T05:33:43.201Z,2.10
2018-09-29T05:36:11.805Z,2.83
2018-09-29T05:38:41.132Z,1.77
2018-09-29T05:41:10.896Z,2.25
2018-09-29T05:43:40.695Z,1.80
2018-09-29T05:46:11.679Z,2.00
2018-09-29T05:48:40.189Z,2.40
2018-09-29T05:51:09.115Z,1.70
2018-09-29T05:53:37.661Z,1.75
2018-09-29T05:56:06.178Z,1.90
2018-09-29T05:58:35.822Z,2.08
2018-09-29T06:01:04.422Z,2.30
2018-09-29T06:03:33.046Z,2.00
2018-09-29T06:06:01.629Z,2.05
2018-09-29T06:08:30.173Z,1.70
2018-09-29T06:10:58.700Z,2.12
2018-09-29T06:13:27.364Z,3.00
2018-09-29T06:15:56.238Z,2.30
2018-09-29T06:18:24.791Z,2.80
2018-09-29T06:20:53.383Z,2.75
2018-09-29T06:23:21.812Z,2.60
2018-09-29T06:25:50.395Z,2.30
2018-09-29T06:28:18.891Z,2.65
2018-09-29T06:30:47.507Z,2.87
2018-09-29T06:33:16.659Z,2.92
2018-09-29T06:35:45.169Z,2.20
2018-09-29T06:38:30.272Z,2.25
2018-09-29T06:40:58.809Z,2.58
2018-09-29T06:43:27.348Z,1.82
2018-09-29T06:45:55.972Z,2.00
2018-09-29T06:48:24.572Z,1.95
2018-09-29T06:50:53.088Z,1.45
2018-09-29T06:53:21.555Z,2.35
2018-09-29T06:55:50.548Z,1.62
2018-09-29T06:58:19.152Z,2.62
2018-09-29T07:00:47.726Z,1.57
2018-09-29T07:03:16.274Z,1.70
2018-09-29T07:05:44.787Z,1.45
2018-09-29T07:10:43.658Z,1.52
2018-09-29T07:13:12.226Z,1.83
2018-09-29T07:15:40.835Z,1.50
2018-09-29T07:18:09.406Z,1.32
2018-09-29T07:20:37.989Z,1.40
2018-09-29T07:23:06.713Z,2.22
2018-09-29T07:25:35.363Z,1.55
2018-09-29T07:28:03.841Z,1.77
2018-09-29T07:30:32.423Z,1.63
2018-09-29T07:33:01.173Z,1.57
2018-09-29T07:35:30.139Z,2.10
2018-09-29T07:37:59.212Z,1.73
2018-09-29T07:40:27.785Z,1.67
2018-09-29T07:42:56.642Z,1.90
2018-09-29T07:45:27.196Z,1.30
2018-09-29T07:47:57.224Z,1.85
2018-09-29T07:50:25.982Z,1.65
2018-09-29T07:52:54.432Z,1.93
2018-09-29T07:55:22.945Z,1.60
2018-09-29T07:57:51.466Z,1.60
2018-09-29T08:00:20.033Z,3.50
2018-09-29T08:02:48.622Z,1.60
2018-09-29T08:05:17.135Z,1.90
2018-09-29T08:07:45.704Z,1.90
2018-09-29T08:10:14.202Z,1.80
2018-09-29T08:12:42.866Z,1.90
2018-09-29T08:15:11.523Z,2.23
2018-09-29T08:17:40.340Z,1.70
2018-09-29T08:20:08.862Z,1.90
2018-09-29T08:22:37.333Z,2.17
2018-09-29T08:25:05.796Z,1.80
2018-09-29T08:27:34.381Z,1.70
2018-09-29T08:30:03.521Z,1.70
2018-09-29T08:32:32.185Z,1.87
2018-09-29T08:35:00.851Z,1.50
2018-09-29T08:37:29.553Z,1.40
2018-09-29T08:39:58.781Z,2.23
2018-09-29T08:42:27.519Z,1.97
2018-09-29T08:44:56.932Z,2.37
2018-09-29T08:47:25.672Z,2.43
2018-09-29T08:49:54.424Z,2.00
2018-09-29T08:52:23.183Z,1.73
2018-09-29T08:54:51.746Z,2.07
2018-09-29T08:57:20.242Z,1.53
2018-09-29T08:59:48.784Z,1.67
2018-09-29T09:02:17.361Z,2.90
2018-09-29T09:04:45.805Z,2.10
2018-09-29T09:07:21.074Z,2.03
2018-09-29T09:09:49.553Z,2.23
2018-09-29T09:12:18.093Z,2.63
2018-09-29T09:14:46.644Z,2.00
2018-09-29T09:17:15.241Z,2.67
2018-09-29T09:19:43.698Z,2.10
2018-09-29T09:22:12.219Z,1.90
2018-09-29T09:24:40.697Z,2.10
2018-09-29T09:27:09.251Z,2.17
2018-09-29T09:29:37.786Z,1.70
2018-09-29T09:32:06.517Z,1.80
2018-09-29T09:34:34.976Z,2.90
2018-09-29T09:37:03.461Z,2.00
2018-09-29T09:39:32.156Z,2.33
2018-09-29T09:42:01.621Z,2.10
2018-09-29T09:44:30.296Z,2.80
2018-09-29T09:46:59.128Z,2.20
2018-09-29T09:49:27.809Z,3.80
2018-09-29T09:51:56.598Z,2.23
2018-09-29T09:54:25.634Z,1.97
2018-09-29T09:56:54.182Z,1.77
2018-09-29T09:59:22.690Z,2.20
2018-09-29T10:01:56.741Z,2.30
2018-09-29T10:04:25.324Z,4.13
2018-09-29T10:06:53.811Z,4.90
2018-09-29T10:09:22.422Z,4.77
2018-09-29T10:11:50.960Z,2.87
2018-09-29T10:14:19.462Z,3.40
2018-09-29T10:16:48.016Z,2.70
2018-09-29T10:19:16.590Z,2.87
2018-09-29T10:21:45.146Z,2.23
2018-09-29T10:24:13.710Z,2.57
2018-09-29T10:26:42.391Z,2.50
2018-09-29T10:29:10.907Z,2.53
2018-09-29T10:31:39.612Z,2.20
2018-09-29T10:34:08.083Z,2.10
2018-09-29T10:36:36.653Z,3.17
2018-09-29T10:39:08.051Z,2.17
2018-09-29T10:41:36.641Z,2.87
2018-09-29T10:44:06.031Z,3.80
2018-09-29T10:46:34.501Z,2.63
2018-09-29T10:49:03.456Z,2.00
2018-09-29T10:51:32.122Z,2.40
2018-09-29T10:54:01.009Z,2.80
2018-09-29T10:56:30.339Z,3.33
2018-09-29T10:58:59.421Z,2.33
2018-09-29T11:01:28.275Z,2.40
2018-09-29T11:03:57.065Z,2.40
2018-09-29T11:06:25.684Z,2.10
2018-09-29T11:08:54.405Z,1.97
2018-09-29T11:11:22.914Z,2.37
2018-09-29T11:13:51.397Z,2.30
2018-09-29T11:16:19.968Z,2.50
2018-09-29T11:18:48.548Z,2.33
2018-09-29T11:21:17.045Z,2.60
2018-09-29T11:23:46.622Z,2.67
2018-09-29T11:26:15.914Z,2.47
2018-09-29T11:28:44.513Z,2.20
2018-09-29T11:31:13.022Z,3.20
2018-09-29T11:33:41.814Z,6.00
2018-09-29T11:36:10.301Z,1.90
2018-09-29T11:38:38.877Z,2.20
2018-09-29T11:41:07.589Z,2.80
2018-09-29T11:43:36.337Z,2.53
2018-09-29T11:46:04.947Z,2.30
2018-09-29T11:48:34.400Z,2.33
2018-09-29T11:51:03.233Z,2.03
2018-09-29T11:53:31.871Z,1.93
2018-09-29T11:56:00.451Z,2.50
2018-09-29T11:58:29.683Z,3.70
2018-09-29T12:00:58.366Z,2.20
2018-09-29T12:03:27.687Z,1.97
2018-09-29T12:05:56.371Z,2.10
2018-09-29T12:08:24.951Z,2.23
2018-09-29T12:10:53.782Z,1.90
2018-09-29T12:13:22.727Z,2.07
2018-09-29T12:15:51.530Z,1.90
2018-09-29T12:18:20.080Z,2.20
2018-09-29T12:20:48.757Z,1.70
2018-09-29T12:23:17.331Z,1.87
2018-09-29T12:25:46.015Z,2.67
2018-09-29T12:28:14.584Z,2.40
2018-09-29T12:30:43.184Z,2.30
2018-09-29T12:33:11.730Z,2.40
2018-09-29T12:35:40.310Z,2.33
2018-09-29T12:38:08.729Z,2.07
2018-09-29T12:40:37.237Z,2.30
2018-09-29T12:43:05.736Z,2.30
2018-09-29T12:45:34.324Z,2.50
2018-09-29T12:48:02.990Z,2.00
2018-09-29T12:50:31.749Z,1.90
2018-09-29T12:53:00.421Z,2.63
2018-09-29T12:55:29.225Z,1.87
2018-09-29T12:57:57.964Z,1.63
2018-09-29T13:00:26.953Z,2.40
2018-09-29T13:02:55.534Z,1.93
2018-09-29T13:05:24.114Z,1.90
2018-09-29T13:07:52.695Z,2.23
2018-09-29T13:10:21.553Z,1.80
2018-09-29T13:12:50.088Z,1.83
2018-09-29T13:15:18.887Z,1.70
2018-09-29T13:17:47.372Z,1.93
2018-09-29T13:20:15.919Z,2.30
2018-09-29T13:22:44.445Z,2.67
2018-09-29T13:25:13.019Z,3.27
2018-09-29T13:27:41.651Z,2.60
2018-09-29T13:30:10.292Z,2.50
2018-09-29T13:32:38.838Z,2.33
2018-09-29T13:35:07.405Z,3.10
2018-09-29T13:37:36.004Z,1.90
2018-09-29T13:40:04.542Z,2.40
2018-09-29T13:42:33.080Z,2.13
2018-09-29T13:45:01.963Z,2.27
2018-09-29T13:47:33.010Z,1.87
2018-09-29T13:50:02.036Z,1.60
2018-09-29T13:52:30.807Z,2.30
2018-09-29T13:54:59.524Z,1.60
2018-09-29T13:57:28.231Z,2.50
2018-09-29T13:59:56.850Z,2.37
2018-09-29T14:02:25.523Z,2.07
2018-09-29T14:04:54.094Z,2.40
2018-09-29T14:07:22.666Z,2.17
2018-09-29T14:09:51.149Z,2.50
2018-09-29T14:12:19.636Z,1.63
2018-09-29T14:14:48.182Z,2.00
2018-09-29T14:17:48.552Z,1.73
2018-09-29T14:23:47.076Z,1.87
2018-09-29T14:26:15.646Z,1.80
2018-09-29T14:28:44.128Z,1.73
2018-09-29T14:31:12.660Z,2.07
2018-09-29T14:33:41.337Z,2.20
2018-09-29T14:36:09.921Z,3.13
2018-09-29T14:38:38.449Z,2.53
2018-09-29T14:41:07.163Z,1.73
2018-09-29T14:43:35.673Z,2.20
2018-09-29T14:46:04.258Z,2.00
2018-09-29T14:48:32.965Z,1.73
2018-09-29T14:51:02.093Z,1.60
2018-09-29T14:53:30.842Z,1.70
2018-09-29T14:55:59.568Z,2.50
2018-09-29T14:58:28.322Z,2.70
2018-09-29T15:00:57.486Z,2.67
2018-09-29T15:03:26.920Z,2.40
2018-09-29T15:05:55.896Z,2.57
2018-09-29T15:08:24.549Z,2.20
2018-09-29T15:10:53.223Z,2.10
2018-09-29T15:13:21.961Z,2.17
2018-09-29T15:15:50.897Z,1.80
2018-09-29T15:18:19.577Z,1.70
2018-09-29T15:20:48.107Z,1.93
2018-09-29T15:23:16.742Z,1.40
2018-09-29T15:25:45.228Z,1.80
2018-09-29T15:28:13.781Z,2.33
2018-09-29T15:30:42.283Z,1.70
2018-09-29T15:33:10.805Z,1.90
2018-09-29T15:35:39.308Z,1.90
2018-09-29T15:38:08.256Z,1.60
2018-09-29T15:40:36.897Z,1.77
2018-09-29T15:43:05.501Z,1.80
2018-09-29T15:45:34.011Z,1.90
2018-09-29T15:48:02.633Z,2.13
2018-09-29T15:50:31.377Z,2.07
2018-09-29T15:53:00.296Z,2.13
2018-09-29T15:55:29.152Z,2.00
2018-09-29T15:57:58.030Z,2.10
2018-09-29T16:00:26.739Z,1.50
2018-09-29T16:02:55.612Z,1.70
2018-09-29T16:05:24.307Z,2.07
2018-09-29T16:07:52.990Z,1.73
2018-09-29T16:10:21.590Z,1.80
2018-09-29T16:12:50.144Z,2.23
2018-09-29T16:15:18.665Z,1.50
2018-09-29T16:17:47.275Z,1.60
2018-09-29T16:20:15.841Z,1.53
2018-09-29T16:22:44.318Z,1.57
2018-09-29T16:25:12.891Z,1.70
2018-09-29T16:27:41.553Z,1.90
2018-09-29T16:30:10.100Z,2.00
2018-09-29T16:32:38.621Z,2.73
2018-09-29T16:35:07.063Z,2.10
2018-09-29T16:37:35.750Z,1.63
2018-09-29T16:40:04.314Z,2.00
2018-09-29T16:42:32.839Z,1.60
2018-09-29T16:45:01.477Z,1.80
2018-09-29T16:47:30.010Z,2.40
2018-09-29T16:49:58.837Z,3.10
2018-09-29T16:52:28.357Z,2.70
2018-09-29T16:54:57.618Z,3.70
2018-09-29T16:57:27.571Z,3.40
2018-09-29T16:59:57.228Z,3.87
2018-09-29T17:02:26.343Z,5.07
2018-09-29T17:04:56.122Z,4.20
2018-09-29T17:07:25.304Z,4.23
2018-09-29T17:09:53.888Z,5.43
2018-09-29T17:12:22.822Z,4.53
2018-09-29T17:14:51.975Z,6.53
2018-09-29T17:17:20.941Z,5.77
2018-09-29T17:19:49.650Z,5.00
2018-09-29T17:22:18.168Z,6.50
2018-09-29T17:24:47.162Z,7.00
2018-09-29T17:27:15.652Z,5.80
2018-09-29T17:29:44.190Z,5.03
2018-09-29T17:32:12.749Z,4.00
2018-09-29T17:34:41.298Z,3.53
2018-09-29T17:37:10.217Z,3.80
2018-09-29T17:39:39.308Z,5.10
2018-09-29T17:42:09.251Z,4.03
2018-09-29T17:44:39.238Z,2.57
2018-09-29T17:47:09.327Z,2.47
2018-09-29T17:49:38.848Z,3.30
2018-09-29T17:52:07.821Z,2.13
2018-09-29T17:54:37.292Z,2.70
2018-09-29T17:57:06.860Z,3.00
2018-09-29T17:59:36.000Z,2.20
2018-09-29T18:02:05.227Z,3.30
2018-09-29T18:04:34.238Z,3.80
2018-09-29T18:07:03.519Z,3.40
2018-09-29T18:09:32.671Z,3.73
2018-09-29T18:12:01.797Z,3.40
2018-09-29T18:14:30.452Z,2.87
2018-09-29T18:16:59.126Z,3.00
2018-09-29T18:19:27.928Z,3.00
2018-09-29T18:21:56.481Z,3.50
2018-09-29T18:24:25.198Z,3.67
2018-09-29T18:26:53.753Z,3.20
2018-09-29T18:29:22.504Z,3.40
2018-09-29T18:31:51.301Z,3.20
2018-09-29T18:34:21.029Z,3.00
2018-09-29T18:36:49.825Z,3.43
2018-09-29T18:39:18.591Z,4.60
2018-09-29T18:41:47.450Z,5.50
2018-09-29T18:44:16.092Z,3.87
2018-09-29T18:46:44.721Z,4.40
2018-09-29T18:49:15.605Z,4.20
2018-09-29T18:51:46.325Z,4.20
2018-09-29T18:54:15.517Z,4.40
2018-09-29T18:56:50.817Z,3.73
2018-09-29T18:59:19.602Z,4.50
2018-09-29T19:01:49.599Z,4.23
2018-09-29T19:04:18.481Z,3.90
2018-09-29T19:06:47.071Z,4.03
2018-09-29T19:09:16.166Z,4.30
2018-09-29T19:11:46.485Z,3.73
2018-09-29T19:14:17.381Z,3.47
2018-09-29T19:16:45.998Z,3.20
2018-09-29T19:19:14.763Z,3.00
2018-09-29T19:21:43.570Z,2.53
2018-09-29T19:24:12.095Z,2.63
2018-09-29T19:26:40.915Z,2.73
2018-09-29T19:29:09.421Z,2.40
2018-09-29T19:31:38.297Z,3.57
2018-09-29T19:34:06.950Z,2.50
2018-09-29T19:36:35.707Z,2.50
2018-09-29T19:39:05.988Z,2.50
2018-09-29T19:41:34.600Z,2.50
2018-09-29T19:44:03.157Z,2.40
2018-09-29T19:46:31.851Z,2.57
2018-09-29T19:49:00.519Z,2.70
2018-09-29T19:51:29.403Z,2.53
2018-09-29T19:53:58.133Z,2.53
2018-09-29T19:56:26.975Z,3.03
2018-09-29T19:58:55.581Z,2.33
2018-09-29T20:01:24.114Z,2.50
2018-09-29T20:03:52.663Z,2.50
2018-09-29T20:06:21.323Z,3.10
2018-09-29T20:08:49.914Z,4.13
2018-09-29T20:11:18.482Z,3.10
2018-09-29T20:13:48.050Z,3.10
2018-09-29T20:16:16.732Z,2.40
2018-09-29T20:18:46.723Z,2.80
2018-09-29T20:21:15.342Z,2.77
2018-09-29T20:23:43.904Z,2.35
2018-09-29T20:26:12.654Z,2.20
2018-09-29T20:28:41.319Z,2.67
2018-09-29T20:31:10.235Z,2.73
2018-09-29T20:33:38.774Z,2.97
2018-09-29T20:36:07.401Z,1.90
2018-09-29T20:38:36.060Z,2.90
2018-09-29T20:41:04.687Z,2.65
2018-09-29T20:43:33.444Z,2.83
2018-09-29T20:46:02.100Z,2.50
2018-09-29T20:48:31.137Z,2.43
2018-09-29T20:50:59.778Z,1.80
2018-09-29T20:53:28.411Z,2.63
2018-09-29T20:55:57.000Z,2.10
2018-09-29T20:58:25.809Z,3.75
2018-09-29T21:00:54.451Z,2.45
2018-09-29T21:03:23.058Z,2.40
2018-09-29T21:05:51.614Z,2.05
2018-09-29T21:08:20.113Z,2.40
2018-09-29T21:10:48.686Z,2.20
2018-09-29T21:13:17.288Z,2.80
2018-09-29T21:15:45.947Z,2.10
2018-09-29T21:18:14.806Z,2.10
2018-09-29T21:20:43.304Z,2.10
2018-09-29T21:23:11.828Z,2.37
2018-09-29T21:25:40.364Z,2.60
2018-09-29T21:28:09.012Z,2.87
2018-09-29T21:30:37.643Z,2.65
2018-09-29T21:33:06.358Z,2.13
2018-09-29T21:35:35.602Z,2.10
2018-09-29T21:38:04.224Z,2.80
2018-09-29T21:40:32.982Z,2.10
2018-09-29T21:43:01.710Z,2.60
2018-09-29T21:45:30.494Z,1.80
2018-09-29T21:47:59.494Z,2.27
2018-09-29T21:50:28.241Z,2.55
2018-09-29T21:52:57.130Z,1.82
2018-09-29T21:55:26.477Z,2.58
2018-09-29T21:57:55.125Z,2.27
2018-09-29T22:00:29.067Z,2.50
2018-09-29T22:02:57.767Z,2.15
2018-09-29T22:05:26.438Z,2.80
2018-09-29T22:07:56.076Z,2.87
2018-09-29T22:10:24.739Z,2.30
2018-09-29T22:12:53.591Z,2.33
2018-09-29T22:15:22.194Z,1.90
2018-09-29T22:17:51.202Z,2.25
2018-09-29T22:20:19.676Z,2.17
2018-09-29T22:22:48.181Z,2.17
2018-09-29T22:25:16.680Z,2.52
2018-09-29T22:27:45.226Z,2.50
2018-09-29T22:30:13.809Z,2.85
2018-09-29T22:32:42.352Z,2.90
2018-09-29T22:35:10.877Z,2.67
2018-09-29T22:37:39.559Z,3.33
2018-09-29T22:40:08.296Z,2.83
2018-09-29T22:42:36.824Z,3.30
2018-09-29T22:45:05.515Z,2.10
2018-09-29T22:47:34.065Z,2.00
2018-09-29T22:50:02.964Z,2.50
2018-09-29T22:52:31.580Z,2.65
2018-09-29T22:55:00.248Z,2.42
2018-09-29T22:57:28.833Z,1.92
2018-09-29T22:59:57.354Z,2.23
2018-09-29T23:02:26.013Z,2.42
2018-09-29T23:04:54.570Z,2.30
2018-09-29T23:07:23.145Z,2.52
2018-09-29T23:09:51.665Z,2.30
2018-09-29T23:12:20.228Z,2.00
2018-09-29T23:14:48.825Z,2.10
2018-09-29T23:17:17.375Z,2.15
2018-09-29T23:19:45.957Z,1.90
2018-09-29T23:22:14.513Z,2.30
2018-09-29T23:24:43.023Z,2.12
2018-09-29T23:27:11.683Z,2.02
2018-09-29T23:29:40.474Z,1.90
2018-09-29T23:32:09.019Z,2.10
2018-09-29T23:34:37.615Z,2.15
2018-09-29T23:37:06.150Z,1.98
2018-09-29T23:39:34.641Z,1.82
2018-09-29T23:42:03.137Z,2.17
2018-09-29T23:44:31.783Z,1.95
2018-09-29T23:47:00.377Z,2.22
2018-09-29T23:49:29.113Z,1.92
2018-09-29T23:51:57.880Z,2.05
2018-09-29T23:54:26.692Z,2.10
2018-09-29T23:56:55.475Z,2.42
2018-09-29T23:59:27.424Z,2.42
